createdAt,value
2018-01-22T00:02:09.083Z,7.97
2018-01-22T00:04:35.674Z,7.67
2018-01-22T00:07:04.565Z,7.35
2018-01-22T00:09:31.044Z,8.02
2018-01-22T00:12:03.261Z,7.62
2018-01-22T00:14:30.870Z,8.85
2018-01-22T00:17:00.745Z,6.90
2018-01-22T00:22:01.403Z,8.05
2018-01-22T00:24:28.711Z,7.97
2018-01-22T00:26:56.216Z,8.20
2018-01-22T00:29:23.518Z,8.25
2018-01-22T00:31:49.946Z,7.18
2018-01-22T00:34:17.227Z,8.10
2018-01-22T00:36:50.811Z,7.70
2018-01-22T00:39:18.442Z,7.80
2018-01-22T00:41:45.159Z,8.17
2018-01-22T00:44:14.424Z,7.80
2018-01-22T00:46:41.760Z,8.07
2018-01-22T00:49:09.402Z,8.20
2018-01-22T00:51:39.000Z,7.80
2018-01-22T00:54:06.652Z,8.07
2018-01-22T00:56:33.939Z,8.02
2018-01-22T00:59:01.341Z,7.68
2018-01-22T01:01:28.199Z,8.10
2018-01-22T01:03:54.576Z,8.63
2018-01-22T01:06:22.862Z,8.23
2018-01-22T01:08:50.717Z,8.25
2018-01-22T01:11:18.095Z,7.40
2018-01-22T01:13:44.276Z,8.98
2018-01-22T01:16:10.321Z,7.97
2018-01-22T01:18:37.058Z,7.87
2018-01-22T01:26:08.995Z,8.05
2018-01-22T01:28:35.176Z,8.88
2018-01-22T01:31:01.483Z,9.18
2018-01-22T01:33:27.530Z,8.68
2018-01-22T01:35:55.112Z,9.55
2018-01-22T01:38:22.787Z,9.82
2018-01-22T01:40:55.269Z,8.45
2018-01-22T01:43:23.055Z,9.77
2018-01-22T01:45:49.856Z,8.27
2018-01-22T01:48:20.797Z,9.40
2018-01-22T01:50:47.682Z,9.25
2018-01-22T01:53:16.203Z,8.48
2018-01-22T01:55:42.306Z,8.40
2018-01-22T01:58:10.023Z,9.02
2018-01-22T02:00:36.163Z,9.63
2018-01-22T02:03:02.457Z,9.23
2018-01-22T02:05:31.066Z,8.82
2018-01-22T02:07:57.459Z,8.40
2018-01-22T02:10:23.420Z,9.68
2018-01-22T02:12:50.043Z,9.47
2018-01-22T02:15:16.078Z,8.68
2018-01-22T02:17:43.811Z,9.00
2018-01-22T02:20:11.274Z,9.98
2018-01-22T02:22:38.300Z,10.93
2018-01-22T02:25:08.674Z,11.05
2018-01-22T02:27:35.714Z,10.18
2018-01-22T02:30:01.744Z,11.45
2018-01-22T02:32:27.810Z,11.82
2018-01-22T02:34:58.036Z,11.25
2018-01-22T02:37:28.320Z,11.40
2018-01-22T02:39:58.061Z,11.70
2018-01-22T02:42:26.201Z,11.60
2018-01-22T02:44:54.236Z,12.45
2018-01-22T02:49:53.936Z,12.25
2018-01-22T02:52:27.386Z,12.90
2018-01-22T02:54:53.408Z,13.62
2018-01-22T02:57:20.150Z,12.98
2018-01-22T03:02:17.535Z,13.10
2018-01-22T03:07:19.357Z,13.45
2018-01-22T03:09:45.479Z,13.62
2018-01-22T03:12:12.817Z,12.98
2018-01-22T03:17:11.871Z,13.62
2018-01-22T03:22:11.813Z,12.35
2018-01-22T03:24:38.937Z,13.62
2018-01-22T03:29:38.799Z,13.60
2018-01-22T03:32:04.844Z,13.43
2018-01-22T03:34:32.413Z,13.13
2018-01-22T03:37:03.200Z,12.40
2018-01-22T03:42:00.852Z,12.18
2018-01-22T03:44:29.863Z,11.35
2018-01-22T03:46:56.794Z,14.60
2018-01-22T03:51:55.911Z,13.55
2018-01-22T03:54:23.381Z,12.90
2018-01-22T03:56:51.957Z,12.13
2018-01-22T03:59:18.000Z,13.75
2018-01-22T04:01:45.863Z,13.13
2018-01-22T04:04:14.655Z,13.10
2018-01-22T04:06:41.159Z,12.90
2018-01-22T04:09:09.648Z,14.20
2018-01-22T04:11:37.864Z,12.18
2018-01-22T04:16:36.590Z,13.93
2018-01-22T04:19:06.225Z,13.50
2018-01-22T04:21:34.017Z,13.77
2018-01-22T04:24:01.882Z,14.57
2018-01-22T04:26:30.760Z,13.15
2018-01-22T04:28:58.796Z,13.62
2018-01-22T04:31:24.998Z,13.23
2018-01-22T04:33:54.483Z,11.45
2018-01-22T04:36:24.888Z,12.68
2018-01-22T04:38:52.089Z,12.82
2018-01-22T04:41:18.523Z,13.13
2018-01-22T04:43:45.344Z,13.45
2018-01-22T04:48:44.368Z,12.15
2018-01-22T04:51:13.550Z,12.32
2018-01-22T04:53:41.231Z,13.20
2018-01-22T04:58:38.627Z,13.23
2018-01-22T05:01:06.030Z,12.88
2018-01-22T05:03:38.306Z,12.60
2018-01-22T05:06:05.343Z,12.40
2018-01-22T05:08:37.153Z,12.15
2018-01-22T05:11:04.129Z,11.55
2018-01-22T05:13:38.929Z,13.45
2018-01-22T05:18:38.934Z,13.20
2018-01-22T05:21:09.010Z,12.55
2018-01-22T05:23:36.176Z,13.50
2018-01-22T05:26:03.597Z,11.35
2018-01-22T05:28:30.393Z,10.70
2018-01-22T05:30:56.525Z,11.50
2018-01-22T05:33:23.028Z,10.98
2018-01-22T05:35:53.502Z,10.40
2018-01-22T05:38:20.641Z,10.50
2018-01-22T05:40:50.697Z,11.25
2018-01-22T05:43:19.528Z,11.80
2018-01-22T05:45:46.907Z,9.73
2018-01-22T05:48:17.591Z,10.57
2018-01-22T05:50:45.474Z,10.93
2018-01-22T05:53:12.564Z,10.45
2018-01-22T05:55:39.312Z,9.77
2018-01-22T05:58:11.071Z,9.30
2018-01-22T06:00:39.443Z,10.10
2018-01-22T06:03:09.286Z,10.27
2018-01-22T06:05:38.715Z,9.82
2018-01-22T06:08:08.363Z,9.38
2018-01-22T06:10:38.600Z,10.82
2018-01-22T06:13:06.636Z,11.25
2018-01-22T06:15:36.425Z,9.95
2018-01-22T06:18:04.150Z,9.52
2018-01-22T06:20:30.796Z,9.80
2018-01-22T06:23:01.173Z,10.27
2018-01-22T06:25:29.679Z,10.07
2018-01-22T06:27:59.909Z,10.02
2018-01-22T06:30:26.616Z,9.48
2018-01-22T06:32:53.593Z,10.13
2018-01-22T06:35:19.993Z,11.45
2018-01-22T06:37:49.493Z,11.45
2018-01-22T06:40:19.285Z,10.10
2018-01-22T06:42:48.670Z,13.02
2018-01-22T06:45:17.933Z,9.73
2018-01-22T06:47:45.862Z,10.43
2018-01-22T06:50:13.430Z,9.75
2018-01-22T06:52:45.110Z,11.20
2018-01-22T06:55:14.191Z,12.25
2018-01-22T06:57:44.852Z,13.10
2018-01-22T07:00:14.172Z,11.27
2018-01-22T07:05:16.081Z,11.02
2018-01-22T07:07:45.385Z,10.45
2018-01-22T07:10:15.249Z,27.02
2018-01-22T07:12:44.081Z,22.62
2018-01-22T07:15:13.332Z,31.87
2018-01-22T07:17:43.808Z,11.63
2018-01-22T07:20:10.851Z,15.77
2018-01-22T07:22:42.053Z,10.43
2018-01-22T07:25:10.969Z,10.43
2018-01-22T07:27:37.097Z,10.75
2018-01-22T07:30:04.647Z,10.38
2018-01-22T07:32:32.115Z,10.25
2018-01-22T07:34:59.987Z,10.25
2018-01-22T07:37:29.858Z,10.90
2018-01-22T07:39:56.732Z,11.70
2018-01-22T07:42:22.875Z,10.48
2018-01-22T07:44:51.316Z,12.57
2018-01-22T07:47:19.672Z,10.00
2018-01-22T07:52:20.664Z,10.95
2018-01-22T07:57:23.176Z,11.45
2018-01-22T08:02:23.990Z,10.55
2018-01-22T08:04:51.019Z,11.30
2018-01-22T08:07:21.386Z,10.82
2018-01-22T08:09:50.894Z,23.67
2018-01-22T08:12:19.903Z,21.40
2018-01-22T08:14:48.728Z,10.73
2018-01-22T08:17:16.123Z,10.43
2018-01-22T08:22:17.750Z,10.40
2018-01-22T08:24:44.508Z,9.52
2018-01-22T08:27:12.467Z,12.63
2018-01-22T08:32:11.326Z,11.23
2018-01-22T08:34:38.068Z,9.70
2018-01-22T08:37:04.245Z,10.80
2018-01-22T08:39:31.458Z,10.63
2018-01-22T08:41:59.947Z,9.18
2018-01-22T08:46:57.491Z,8.35
2018-01-22T08:49:23.963Z,8.18
2018-01-22T08:51:52.151Z,8.10
2018-01-22T08:56:53.647Z,8.55
2018-01-22T08:59:21.739Z,7.32
2018-01-22T09:01:49.085Z,9.07
2018-01-22T09:04:15.198Z,8.05
2018-01-22T09:06:42.678Z,8.20
2018-01-22T09:09:08.853Z,9.40
2018-01-22T09:11:35.692Z,9.18
2018-01-22T09:14:01.966Z,8.30
2018-01-22T09:16:28.111Z,7.72
2018-01-22T09:18:54.881Z,8.85
2018-01-22T09:21:23.008Z,9.23
2018-01-22T09:23:52.556Z,9.73
2018-01-22T09:26:20.877Z,9.20
2018-01-22T09:31:18.953Z,9.55
2018-01-22T09:33:46.575Z,9.55
2018-01-22T09:36:12.787Z,10.15
2018-01-22T09:38:38.954Z,10.02
2018-01-22T09:41:05.143Z,10.70
2018-01-22T09:43:31.466Z,12.37
2018-01-22T09:45:57.553Z,10.95
2018-01-22T09:48:23.671Z,11.80
2018-01-22T09:50:51.346Z,12.00
2018-01-22T09:53:17.692Z,11.85
2018-01-22T09:55:43.969Z,14.77
2018-01-22T09:58:10.236Z,11.65
2018-01-22T10:05:37.857Z,14.30
2018-01-22T10:08:07.467Z,13.55
2018-01-22T10:10:35.381Z,14.00
2018-01-22T10:15:35.047Z,15.18
2018-01-22T10:18:01.348Z,16.73
2018-01-22T10:20:27.842Z,15.27
2018-01-22T10:23:05.553Z,15.63
2018-01-22T10:28:09.560Z,14.35
2018-01-22T10:30:36.603Z,14.77
2018-01-22T10:33:03.136Z,15.55
2018-01-22T10:35:30.387Z,15.02
2018-01-22T10:37:56.611Z,13.85
2018-01-22T10:40:23.764Z,14.85
2018-01-22T10:42:50.868Z,14.23
2018-01-22T10:45:18.423Z,14.60
2018-01-22T10:47:46.503Z,13.50
2018-01-22T10:52:43.337Z,15.82
2018-01-22T10:55:13.330Z,15.65
2018-01-22T10:57:39.367Z,14.80
2018-01-22T11:00:10.168Z,14.57
2018-01-22T11:02:36.312Z,15.13
2018-01-22T11:05:05.143Z,15.00
2018-01-22T11:07:31.919Z,15.32
2018-01-22T11:09:59.101Z,14.98
2018-01-22T11:12:26.591Z,14.55
2018-01-22T11:14:54.116Z,14.48
2018-01-22T11:17:22.566Z,15.93
2018-01-22T11:19:51.830Z,14.60
2018-01-22T11:22:21.608Z,15.73
2018-01-22T11:27:22.619Z,14.87
2018-01-22T11:29:49.288Z,15.00
2018-01-22T11:32:15.463Z,13.90
2018-01-22T11:34:41.981Z,13.70
2018-01-22T11:37:08.154Z,14.18
2018-01-22T11:39:34.251Z,14.30
2018-01-22T11:42:00.448Z,14.65
2018-01-22T11:44:27.807Z,13.43
2018-01-22T11:46:56.289Z,12.27
2018-01-22T11:49:26.521Z,12.45
2018-01-22T11:51:53.230Z,13.13
2018-01-22T11:54:21.892Z,12.43
2018-01-22T11:56:52.143Z,11.68
2018-01-22T11:59:19.804Z,11.18
2018-01-22T12:01:46.714Z,10.57
2018-01-22T12:04:12.989Z,12.55
2018-01-22T12:06:39.080Z,11.77
2018-01-22T12:09:05.138Z,10.73
2018-01-22T12:11:31.686Z,11.50
2018-01-22T12:13:59.277Z,13.43
2018-01-22T12:16:26.552Z,11.48
2018-01-22T12:23:58.905Z,12.60
2018-01-22T12:26:25.257Z,13.93
2018-01-22T12:31:21.955Z,14.97
2018-01-22T12:33:49.231Z,15.20
2018-01-22T12:36:16.112Z,14.00
2018-01-22T12:38:45.174Z,14.23
2018-01-22T12:41:11.217Z,13.07
2018-01-22T12:43:37.258Z,15.57
2018-01-22T12:46:03.741Z,14.02
2018-01-22T12:48:29.866Z,13.43
2018-01-22T12:50:56.935Z,16.42
2018-01-22T12:53:23.245Z,13.80
2018-01-22T12:55:50.579Z,15.00
2018-01-22T12:58:19.256Z,15.57
2018-01-22T13:00:46.142Z,16.23
2018-01-22T13:03:12.245Z,15.10
2018-01-22T13:05:38.344Z,14.40
2018-01-22T13:08:05.072Z,16.10
2018-01-22T13:10:32.715Z,15.80
2018-01-22T13:13:02.036Z,14.30
2018-01-22T13:15:28.031Z,14.60
2018-01-22T13:17:54.950Z,14.37
2018-01-22T13:20:21.641Z,15.00
2018-01-22T13:22:50.509Z,15.63
2018-01-22T13:25:17.576Z,14.30
2018-01-22T13:27:43.701Z,13.80
2018-01-22T13:30:11.962Z,14.13
2018-01-22T13:32:39.625Z,14.63
2018-01-22T13:35:06.766Z,14.97
2018-01-22T13:37:33.727Z,14.93
2018-01-22T13:40:06.820Z,16.80
2018-01-22T13:42:32.834Z,15.80
2018-01-22T13:47:33.088Z,15.47
2018-01-22T13:50:00.347Z,16.23
2018-01-22T13:52:26.774Z,15.97
2018-01-22T13:54:56.093Z,15.40
2018-01-22T13:57:22.761Z,16.00
2018-01-22T13:59:51.015Z,16.60
2018-01-22T14:02:17.231Z,15.27
2018-01-22T14:04:44.186Z,16.43
2018-01-22T14:07:10.156Z,16.63
2018-01-22T14:09:39.614Z,16.40
2018-01-22T14:12:06.662Z,16.27
2018-01-22T14:14:32.725Z,16.33
2018-01-22T14:16:59.278Z,17.60
2018-01-22T14:19:25.658Z,16.47
2018-01-22T14:21:52.755Z,14.93
2018-01-22T14:24:18.843Z,16.83
2018-01-22T14:26:45.231Z,16.03
2018-01-22T14:29:11.226Z,15.50
2018-01-22T14:31:38.015Z,15.10
2018-01-22T14:34:04.995Z,15.03
2018-01-22T14:36:32.565Z,16.20
2018-01-22T14:38:58.634Z,15.50
2018-01-22T14:41:24.657Z,15.17
2018-01-22T14:43:50.680Z,17.57
2018-01-22T14:46:16.671Z,16.20
2018-01-22T14:48:43.550Z,16.00
2018-01-22T14:51:09.567Z,15.40
2018-01-22T14:53:35.655Z,16.00
2018-01-22T14:56:02.486Z,15.73
2018-01-22T14:58:30.322Z,16.77
2018-01-22T15:00:56.311Z,15.67
2018-01-22T15:03:22.306Z,15.53
2018-01-22T15:05:48.859Z,15.73
2018-01-22T15:08:15.341Z,14.77
2018-01-22T15:10:41.484Z,15.30
2018-01-22T15:13:08.140Z,15.67
2018-01-22T15:15:34.151Z,14.73
2018-01-22T15:18:01.425Z,15.87
2018-01-22T15:20:30.380Z,14.73
2018-01-22T15:22:57.976Z,15.03
2018-01-22T15:25:24.236Z,16.57
2018-01-22T15:27:50.302Z,15.73
2018-01-22T15:32:49.158Z,15.97
2018-01-22T15:35:16.462Z,16.90
2018-01-22T15:40:18.728Z,16.97
2018-01-22T15:45:17.247Z,16.67
2018-01-22T15:47:43.319Z,17.07
2018-01-22T15:50:10.038Z,17.30
2018-01-22T15:52:39.471Z,16.57
2018-01-22T15:55:07.048Z,17.07
2018-01-22T15:57:33.115Z,17.50
2018-01-22T15:59:59.110Z,17.00
2018-01-22T16:02:25.129Z,19.87
2018-01-22T16:07:24.143Z,16.97
2018-01-22T16:09:52.046Z,18.70
2018-01-22T16:12:22.386Z,18.47
2018-01-22T16:14:51.013Z,18.20
2018-01-22T16:17:20.236Z,18.87
2018-01-22T16:19:47.468Z,18.00
2018-01-22T16:22:14.293Z,18.77
2018-01-22T16:24:41.535Z,17.67
2018-01-22T16:27:09.085Z,17.83
2018-01-22T16:29:35.134Z,19.13
2018-01-22T16:32:03.219Z,16.70
2018-01-22T16:34:30.978Z,17.30
2018-01-22T16:36:57.090Z,16.63
2018-01-22T16:39:23.615Z,18.00
2018-01-22T16:41:52.326Z,17.43
2018-01-22T16:44:19.114Z,15.60
2018-01-22T16:46:52.401Z,19.10
2018-01-22T16:49:19.435Z,18.00
2018-01-22T16:51:47.134Z,17.90
2018-01-22T16:54:14.081Z,16.57
2018-01-22T16:56:40.156Z,17.80
2018-01-22T16:59:06.281Z,17.53
2018-01-22T17:01:33.208Z,19.53
2018-01-22T17:03:59.232Z,20.50
2018-01-22T17:06:27.283Z,19.03
2018-01-22T17:08:54.208Z,18.03
2018-01-22T17:11:20.233Z,18.93
2018-01-22T17:13:46.401Z,18.93
2018-01-22T17:16:12.374Z,18.80
2018-01-22T17:18:39.443Z,18.87
2018-01-22T17:21:06.266Z,19.57
2018-01-22T17:23:33.013Z,18.17
2018-01-22T17:25:59.858Z,19.23
2018-01-22T17:28:27.436Z,19.20
2018-01-22T17:30:53.435Z,19.07
2018-01-22T17:33:19.624Z,20.23
2018-01-22T17:35:45.595Z,20.00
2018-01-22T17:38:11.564Z,17.80
2018-01-22T17:40:37.519Z,18.27
2018-01-22T17:43:04.312Z,20.47
2018-01-22T17:45:30.259Z,17.87
2018-01-22T17:47:56.810Z,22.80
2018-01-22T17:50:22.765Z,17.20
2018-01-22T17:52:48.738Z,19.33
2018-01-22T17:55:14.695Z,18.70
2018-01-22T17:57:40.850Z,18.40
2018-01-22T18:00:07.682Z,19.23
2018-01-22T18:02:33.908Z,18.60
2018-01-22T18:05:00.195Z,19.20
2018-01-22T18:07:26.134Z,19.60
2018-01-22T18:09:52.105Z,18.40
2018-01-22T18:12:19.248Z,19.47
2018-01-22T18:14:45.555Z,18.40
2018-01-22T18:17:12.341Z,20.10
2018-01-22T18:19:38.715Z,21.80
2018-01-22T18:22:04.763Z,20.17
2018-01-22T18:24:30.939Z,18.37
2018-01-22T18:26:56.974Z,18.90
2018-01-22T18:29:23.969Z,17.93
2018-01-22T18:31:50.006Z,19.80
2018-01-22T18:34:16.007Z,18.80
2018-01-22T18:36:44.158Z,22.37
2018-01-22T18:39:11.260Z,21.07
2018-01-22T18:41:37.314Z,17.30
2018-01-22T18:44:03.451Z,19.63
2018-01-22T18:46:29.614Z,18.60
2018-01-22T18:48:56.460Z,18.47
2018-01-22T18:51:22.549Z,20.83
2018-01-22T18:53:48.702Z,18.57
2018-01-22T18:56:14.708Z,18.60
2018-01-22T18:58:40.842Z,18.40
2018-01-22T19:01:06.919Z,17.90
2018-01-22T19:03:33.009Z,20.13
2018-01-22T19:05:59.007Z,17.77
2018-01-22T19:08:25.143Z,19.57
2018-01-22T19:10:51.966Z,18.40
2018-01-22T19:13:17.951Z,19.90
2018-01-22T19:15:43.983Z,19.40
2018-01-22T19:18:09.980Z,18.43
2018-01-22T19:20:36.014Z,18.43
2018-01-22T19:23:02.003Z,18.37
2018-01-22T19:25:28.173Z,19.30
2018-01-22T19:27:55.102Z,19.93
2018-01-22T19:30:21.129Z,17.50
2018-01-22T19:32:47.166Z,17.97
2018-01-22T19:35:13.167Z,17.57
2018-01-22T19:37:39.231Z,19.23
2018-01-22T19:40:05.542Z,18.80
2018-01-22T19:42:33.621Z,17.83
2018-01-22T19:44:59.641Z,18.20
2018-01-22T19:47:25.674Z,18.77
2018-01-22T19:49:51.798Z,18.80
2018-01-22T19:52:17.899Z,17.97
2018-01-22T19:54:44.226Z,17.87
2018-01-22T19:57:10.385Z,19.33
2018-01-22T19:59:37.401Z,17.47
2018-01-22T20:02:05.941Z,16.97
2018-01-22T20:04:32.771Z,16.77
2018-01-22T20:07:00.033Z,18.10
2018-01-22T20:09:26.599Z,18.70
2018-01-22T20:11:52.893Z,17.90
2018-01-22T20:14:20.602Z,17.67
2018-01-22T20:16:47.838Z,18.30
2018-01-22T20:19:13.999Z,16.90
2018-01-22T20:21:40.162Z,16.93
2018-01-22T20:24:06.584Z,17.60
2018-01-22T20:26:32.696Z,18.83
2018-01-22T20:28:58.956Z,17.43
2018-01-22T20:31:25.964Z,17.00
2018-01-22T20:33:52.001Z,17.37
2018-01-22T20:36:18.745Z,21.00
2018-01-22T20:38:45.775Z,19.90
2018-01-22T20:41:12.925Z,16.20
2018-01-22T20:43:39.358Z,16.87
2018-01-22T20:46:05.683Z,16.23
2018-01-22T20:48:32.036Z,16.77
2018-01-22T20:50:58.279Z,17.00
2018-01-22T20:53:26.204Z,16.90
2018-01-22T20:55:52.293Z,17.53
2018-01-22T20:58:22.604Z,15.50
2018-01-22T21:00:48.721Z,16.97
2018-01-22T21:03:14.871Z,16.77
2018-01-22T21:05:40.926Z,16.37
2018-01-22T21:08:07.148Z,16.50
2018-01-22T21:10:33.811Z,17.63
2018-01-22T21:12:59.998Z,17.20
2018-01-22T21:15:28.669Z,18.20
2018-01-22T21:17:54.939Z,17.30
2018-01-22T21:20:21.917Z,17.33
2018-01-22T21:22:54.866Z,17.17
2018-01-22T21:25:22.277Z,15.63
2018-01-22T21:27:48.353Z,16.00
2018-01-22T21:30:15.326Z,17.20
2018-01-22T21:35:15.024Z,15.77
2018-01-22T21:37:41.813Z,15.57
2018-01-22T21:40:08.761Z,16.03
2018-01-22T21:42:40.202Z,14.90
2018-01-22T21:45:08.271Z,15.33
2018-01-22T21:47:34.402Z,14.57
2018-01-22T21:50:01.151Z,15.13
2018-01-22T21:52:27.239Z,14.70
2018-01-22T21:54:53.782Z,14.97
2018-01-22T21:57:20.079Z,14.33
2018-01-22T21:59:48.592Z,15.90
2018-01-22T22:02:14.725Z,14.20
2018-01-22T22:04:41.365Z,15.77
2018-01-22T22:07:07.435Z,14.97
2018-01-22T22:09:35.560Z,14.70
2018-01-22T22:12:02.758Z,13.57
2018-01-22T22:14:29.294Z,14.63
2018-01-22T22:16:56.867Z,14.10
2018-01-22T22:19:25.042Z,13.23
2018-01-22T22:21:51.098Z,12.27
2018-01-22T22:24:17.399Z,13.70
2018-01-22T22:26:43.648Z,12.67
2018-01-22T22:29:09.791Z,10.80
2018-01-22T22:31:35.907Z,11.60
2018-01-22T22:36:36.773Z,8.40
2018-01-22T22:39:03.324Z,9.67
2018-01-22T22:41:29.371Z,7.70
2018-01-22T22:43:59.221Z,7.13
2018-01-22T22:46:25.460Z,9.40
2018-01-22T22:48:52.324Z,8.60
2018-01-22T22:51:18.532Z,10.50
2018-01-22T22:53:44.831Z,9.23
2018-01-22T22:56:11.235Z,10.03
2018-01-22T22:58:37.461Z,8.77
2018-01-22T23:01:05.236Z,10.60
2018-01-22T23:03:33.297Z,11.60
2018-01-22T23:05:59.540Z,10.70
2018-01-22T23:08:27.040Z,11.77
2018-01-22T23:10:53.096Z,11.57
2018-01-22T23:13:19.411Z,12.00
2018-01-22T23:15:45.635Z,9.97
2018-01-22T23:18:11.917Z,10.20
2018-01-22T23:20:38.636Z,9.30
2018-01-22T23:23:06.516Z,8.53
2018-01-22T23:25:34.214Z,7.60
2018-01-22T23:28:00.313Z,7.37
2018-01-22T23:30:26.337Z,6.50
2018-01-22T23:32:53.152Z,6.40
2018-01-22T23:35:20.320Z,7.43
2018-01-22T23:37:47.672Z,7.00
2018-01-22T23:40:13.892Z,6.97
2018-01-22T23:42:41.452Z,6.63
2018-01-22T23:45:07.513Z,7.23
2018-01-22T23:47:33.793Z,6.67
2018-01-22T23:50:00.801Z,6.60
2018-01-22T23:52:26.955Z,6.20
2018-01-22T23:54:53.046Z,5.70
2018-01-22T23:57:20.246Z,6.10
2018-01-22T23:59:46.313Z,5.67
